createdAt,value
2022-10-01T00:00:15.638Z,73.94
2022-10-01T00:05:19.262Z,73.99
2022-10-01T00:10:23.463Z,73.94
2022-10-01T00:15:27.239Z,74.11
2022-10-01T00:20:31.146Z,74.03
2022-10-01T00:25:35.151Z,74.13
2022-10-01T00:30:45.995Z,74.19
2022-10-01T00:35:50.415Z,74.08
2022-10-01T00:40:54.936Z,73.96
2022-10-01T00:46:04.612Z,74.15
2022-10-01T00:51:13.451Z,74.46
2022-10-01T00:56:18.333Z,74.34
2022-10-01T01:01:24.134Z,74.45
2022-10-01T01:06:28.336Z,74.43
2022-10-01T01:11:39.969Z,74.35
2022-10-01T01:16:50.590Z,74.15
2022-10-01T01:21:59.777Z,74.20
2022-10-01T01:27:16.737Z,74.37
2022-10-01T01:32:25.455Z,74.61
2022-10-01T01:37:35.137Z,74.53
2022-10-01T01:42:42.115Z,74.40
2022-10-01T01:47:47.131Z,74.67
2022-10-01T01:52:51.115Z,74.52
2022-10-01T01:57:56.355Z,74.88
2022-10-01T02:03:01.225Z,75.19
2022-10-01T02:08:23.119Z,75.35
2022-10-01T02:13:41.465Z,75.33
2022-10-01T02:18:50.273Z,75.37
2022-10-01T02:23:59.390Z,75.63
2022-10-01T02:29:07.653Z,75.87
2022-10-01T02:34:19.405Z,75.60
2022-10-01T02:39:27.436Z,75.79
2022-10-01T02:44:37.569Z,75.90
2022-10-01T02:49:41.757Z,75.79
2022-10-01T02:54:53.052Z,75.72
2022-10-01T02:59:59.354Z,75.59
2022-10-01T03:05:04.192Z,75.83
2022-10-01T03:10:10.173Z,75.84
2022-10-01T03:15:17.891Z,75.94
2022-10-01T03:20:22.418Z,76.04
2022-10-01T03:25:26.687Z,76.15
2022-10-01T03:30:30.399Z,76.27
2022-10-01T03:35:34.236Z,76.22
2022-10-01T03:40:38.586Z,76.27
2022-10-01T03:45:42.829Z,76.26
2022-10-01T03:50:54.495Z,76.43
2022-10-01T03:55:59.631Z,76.59
2022-10-01T04:01:03.340Z,76.56
2022-10-01T04:06:07.554Z,76.56
2022-10-01T04:11:12.229Z,76.74
2022-10-01T04:16:16.156Z,76.71
2022-10-01T04:21:20.273Z,76.63
2022-10-01T04:26:24.779Z,76.60
2022-10-01T04:31:34.262Z,76.70
2022-10-01T04:36:38.199Z,76.72
2022-10-01T04:41:42.026Z,76.91
2022-10-01T04:46:46.550Z,76.95
2022-10-01T04:51:50.802Z,76.99
2022-10-01T04:56:54.434Z,76.98
2022-10-01T05:01:58.226Z,77.04
2022-10-01T05:07:01.942Z,77.01
2022-10-01T05:12:07.614Z,76.94
2022-10-01T05:17:11.540Z,77.24
2022-10-01T05:22:15.325Z,77.16
2022-10-01T05:27:19.621Z,77.35
2022-10-01T05:32:24.060Z,77.40
2022-10-01T05:37:27.901Z,77.57
2022-10-01T05:42:32.168Z,77.59
2022-10-01T05:47:35.994Z,77.68
2022-10-01T05:53:07.127Z,77.77
2022-10-01T05:58:16.998Z,77.92
2022-10-01T06:03:38.350Z,77.87
2022-10-01T06:08:52.478Z,77.83
2022-10-01T06:14:03.238Z,77.73
2022-10-01T06:19:06.976Z,77.37
2022-10-01T06:24:12.320Z,77.51
2022-10-01T06:29:16.259Z,77.52
2022-10-01T06:34:20.281Z,77.31
2022-10-01T06:39:24.139Z,77.49
2022-10-01T06:44:28.132Z,77.45
2022-10-01T06:49:31.678Z,77.36
2022-10-01T06:54:35.200Z,77.30
2022-10-01T06:59:38.794Z,77.36
2022-10-01T07:04:42.449Z,77.53
2022-10-01T07:09:46.234Z,77.38
2022-10-01T07:14:49.763Z,77.05
2022-10-01T07:19:53.306Z,76.85
2022-10-01T07:24:56.880Z,76.80
2022-10-01T07:30:00.444Z,76.74
2022-10-01T07:35:05.460Z,76.21
2022-10-01T07:40:10.268Z,76.13
2022-10-01T07:45:13.934Z,75.82
2022-10-01T07:50:19.100Z,75.55
2022-10-01T07:55:26.058Z,75.39
2022-10-01T08:00:32.407Z,75.14
2022-10-01T08:05:37.309Z,74.39
2022-10-01T08:10:42.425Z,74.83
2022-10-01T08:15:49.470Z,74.21
2022-10-01T08:20:56.256Z,73.49
2022-10-01T08:26:01.414Z,72.88
2022-10-01T08:31:09.336Z,72.78
2022-10-01T08:36:16.491Z,71.95
2022-10-01T08:41:31.176Z,71.40
2022-10-01T08:46:37.366Z,71.58
2022-10-01T08:51:48.449Z,70.60
2022-10-01T08:56:54.446Z,70.17
2022-10-01T09:01:58.981Z,69.81
2022-10-01T09:07:10.216Z,69.17
2022-10-01T09:12:27.838Z,68.44
2022-10-01T09:17:52.626Z,69.06
2022-10-01T09:23:11.684Z,68.62
2022-10-01T09:28:19.302Z,67.43
2022-10-01T09:33:22.746Z,67.76
2022-10-01T09:38:34.137Z,67.94
2022-10-01T09:43:40.207Z,67.90
2022-10-01T09:48:49.487Z,67.80
2022-10-01T09:54:04.710Z,67.87
2022-10-01T09:59:16.848Z,67.83
2022-10-01T10:04:23.266Z,67.82
2022-10-01T10:09:32.159Z,67.71
2022-10-01T10:14:39.693Z,67.72
2022-10-01T10:19:48.963Z,67.79
2022-10-01T10:24:53.654Z,67.79
2022-10-01T10:30:08.142Z,67.42
2022-10-01T10:35:15.804Z,67.29
2022-10-01T10:40:27.008Z,66.89
2022-10-01T10:45:39.478Z,66.70
2022-10-01T10:50:46.137Z,66.84
2022-10-01T10:56:00.653Z,66.43
2022-10-01T11:01:09.885Z,66.29
2022-10-01T11:06:18.046Z,66.60
2022-10-01T11:11:36.446Z,66.56
2022-10-01T11:16:54.099Z,66.31
2022-10-01T11:22:14.101Z,66.02
2022-10-01T11:27:25.787Z,65.98
2022-10-01T11:32:37.478Z,65.99
2022-10-01T11:37:59.416Z,66.13
2022-10-01T11:43:07.003Z,66.11
2022-10-01T11:48:18.944Z,66.08
2022-10-01T11:53:31.790Z,66.01
2022-10-01T11:58:52.508Z,66.06
2022-10-01T12:04:16.119Z,65.83
2022-10-01T12:09:24.524Z,66.06
2022-10-01T12:14:37.759Z,66.00
2022-10-01T12:19:49.879Z,65.74
2022-10-01T12:24:54.015Z,65.83
2022-10-01T12:30:04.698Z,65.89
2022-10-01T12:35:23.156Z,65.74
2022-10-01T12:40:34.029Z,65.78
2022-10-01T12:45:48.656Z,65.53
2022-10-01T12:51:04.645Z,65.51
2022-10-01T12:56:16.179Z,66.01
2022-10-01T13:01:31.733Z,65.86
2022-10-01T13:06:47.497Z,65.94
2022-10-01T13:12:11.553Z,65.70
2022-10-01T13:17:21.403Z,65.85
2022-10-01T13:22:34.600Z,65.74
2022-10-01T13:27:43.601Z,65.77
2022-10-01T13:32:57.153Z,65.80
2022-10-01T13:38:14.607Z,65.94
2022-10-01T13:43:23.489Z,65.76
2022-10-01T13:48:34.268Z,65.85
2022-10-01T13:53:49.511Z,65.84
2022-10-01T13:58:53.234Z,65.75
2022-10-01T14:04:04.602Z,65.76
2022-10-01T14:09:16.500Z,65.63
2022-10-01T14:14:44.560Z,65.67
2022-10-01T14:19:50.511Z,65.76
2022-10-01T14:25:14.345Z,65.98
2022-10-01T14:30:22.842Z,66.12
2022-10-01T14:35:33.753Z,66.17
2022-10-01T14:40:40.044Z,66.04
2022-10-01T14:45:54.877Z,66.25
2022-10-01T14:51:03.982Z,66.25
2022-10-01T14:56:12.856Z,66.26
2022-10-01T15:01:21.447Z,66.34
2022-10-01T15:06:29.150Z,66.29
2022-10-01T15:11:34.959Z,66.57
2022-10-01T15:16:40.170Z,66.58
2022-10-01T15:21:49.879Z,66.83
2022-10-01T15:26:58.318Z,66.76
2022-10-01T15:32:08.205Z,66.99
2022-10-01T15:37:20.956Z,67.16
2022-10-01T15:42:29.940Z,67.34
2022-10-01T15:47:36.882Z,67.41
2022-10-01T15:52:50.767Z,67.52
2022-10-01T15:57:57.699Z,67.58
2022-10-01T16:03:02.253Z,67.65
2022-10-01T16:08:09.693Z,67.97
2022-10-01T16:13:42.754Z,68.09
2022-10-01T16:18:56.143Z,68.32
2022-10-01T16:24:27.417Z,68.29
2022-10-01T16:29:35.010Z,68.35
2022-10-01T16:34:41.648Z,68.59
2022-10-01T16:39:45.730Z,68.70
2022-10-01T16:44:50.856Z,68.63
2022-10-01T16:49:54.611Z,68.60
2022-10-01T16:54:58.292Z,68.67
2022-10-01T17:00:02.339Z,68.87
2022-10-01T17:05:16.434Z,69.00
2022-10-01T17:10:22.281Z,69.08
2022-10-01T17:15:29.937Z,69.14
2022-10-01T17:20:33.949Z,69.29
2022-10-01T17:25:40.074Z,69.56
2022-10-01T17:30:45.967Z,69.76
2022-10-01T17:35:51.376Z,69.87
2022-10-01T17:40:56.838Z,69.77
2022-10-01T17:46:01.889Z,69.85
2022-10-01T17:51:08.186Z,70.13
2022-10-01T17:56:14.856Z,70.21
2022-10-01T18:01:22.326Z,70.53
2022-10-01T18:07:08.315Z,70.74
2022-10-01T18:12:12.838Z,70.93
2022-10-01T18:17:17.466Z,70.99
2022-10-01T18:22:23.374Z,71.19
2022-10-01T18:27:27.640Z,71.28
2022-10-01T18:32:37.372Z,71.44
2022-10-01T18:37:46.249Z,71.72
2022-10-01T18:42:55.189Z,71.73
2022-10-01T18:48:11.156Z,72.14
2022-10-01T18:53:39.989Z,72.26
2022-10-01T18:58:57.391Z,72.31
2022-10-01T19:04:28.795Z,72.68
2022-10-01T19:09:43.675Z,72.51
2022-10-01T19:15:03.382Z,72.79
2022-10-01T19:20:23.472Z,72.82
2022-10-01T19:25:33.103Z,73.10
2022-10-01T19:30:56.837Z,73.23
2022-10-01T19:36:01.198Z,73.36
2022-10-01T19:41:14.277Z,73.38
2022-10-01T19:46:22.788Z,73.49
2022-10-01T19:51:32.557Z,73.48
2022-10-01T19:56:37.842Z,73.66
2022-10-01T20:01:49.059Z,73.66
2022-10-01T20:06:59.871Z,73.72
2022-10-01T20:12:11.072Z,73.86
2022-10-01T20:17:22.158Z,73.90
2022-10-01T20:22:36.416Z,74.06
2022-10-01T20:27:49.594Z,74.16
2022-10-01T20:33:00.990Z,74.23
2022-10-01T20:38:11.281Z,74.32
2022-10-01T20:43:18.024Z,74.17
2022-10-01T20:55:48.897Z,74.53
2022-10-01T21:01:00.112Z,74.51
2022-10-01T21:06:11.944Z,74.47
2022-10-01T21:11:25.007Z,74.66
2022-10-01T21:16:52.413Z,74.68
2022-10-01T21:22:06.274Z,74.78
2022-10-01T21:27:26.516Z,74.96
2022-10-01T21:32:47.196Z,75.13
2022-10-01T21:38:01.835Z,75.04
2022-10-01T21:43:18.507Z,75.17
2022-10-01T21:48:38.978Z,75.10
2022-10-01T21:54:02.820Z,75.28
2022-10-01T21:59:16.325Z,75.27
2022-10-01T22:04:26.988Z,75.47
2022-10-01T22:09:39.047Z,75.44
2022-10-01T22:14:45.538Z,75.54
2022-10-01T22:19:52.257Z,75.55
2022-10-01T22:24:59.309Z,75.79
2022-10-01T22:30:10.956Z,75.72
2022-10-01T22:35:20.507Z,75.74
2022-10-01T22:40:28.797Z,75.81
2022-10-01T22:45:47.671Z,76.03
2022-10-01T22:51:04.567Z,75.97
2022-10-01T22:56:13.931Z,76.14
2022-10-01T23:01:30.534Z,75.82
2022-10-01T23:06:50.780Z,76.07
2022-10-01T23:12:04.099Z,76.06
2022-10-01T23:17:14.538Z,76.22
2022-10-01T23:22:36.024Z,76.17
2022-10-01T23:27:50.749Z,76.33
2022-10-01T23:33:11.647Z,76.35
2022-10-01T23:38:35.035Z,76.31
2022-10-01T23:43:46.279Z,76.52
2022-10-01T23:48:55.891Z,76.47
2022-10-01T23:54:04.764Z,76.40
2022-10-01T23:59:16.009Z,76.45
